sensor_id;sensor_type;location;lat;lon;timestamp;temperature;humidity
21047;DHT22;10682;50.874;3.656;2023-10-08T00:01:17;15.50;99.90
21047;DHT22;10682;50.874;3.656;2023-10-08T00:03:45;15.50;99.90
21047;DHT22;10682;50.874;3.656;2023-10-08T00:06:21;15.40;99.90
21047;DHT22;10682;50.874;3.656;2023-10-08T00:08:49;15.40;99.90
21047;DHT22;10682;50.874;3.656;2023-10-08T00:11:18;15.40;99.90
21047;DHT22;10682;50.874;3.656;2023-10-08T00:13:46;15.40;99.90
21047;DHT22;10682;50.874;3.656;2023-10-08T00:16:15;15.50;99.90
21047;DHT22;10682;50.874;3.656;2023-10-08T00:18:45;15.50;99.90
21047;DHT22;10682;50.874;3.656;2023-10-08T00:21:21;15.50;99.90
21047;DHT22;10682;50.874;3.656;2023-10-08T00:23:55;15.50;99.90
21047;DHT22;10682;50.874;3.656;2023-10-08T00:26:27;15.60;99.90
21047;DHT22;10682;50.874;3.656;2023-10-08T00:29:01;15.60;99.90
21047;DHT22;10682;50.874;3.656;2023-10-08T00:31:44;15.60;99.90
21047;DHT22;10682;50.874;3.656;2023-10-08T00:34:20;15.50;99.90
21047;DHT22;10682;50.874;3.656;2023-10-08T00:36:48;15.50;99.90
21047;DHT22;10682;50.874;3.656;2023-10-08T00:39:16;15.40;99.90
21047;DHT22;10682;50.874;3.656;2023-10-08T00:41:54;15.50;99.90
21047;DHT22;10682;50.874;3.656;2023-10-08T00:44:35;15.50;99.90
21047;DHT22;10682;50.874;3.656;2023-10-08T00:47:08;15.40;99.90
21047;DHT22;10682;50.874;3.656;2023-10-08T00:49:37;15.40;99.90
21047;DHT22;10682;50.874;3.656;2023-10-08T00:52:13;15.40;99.90
21047;DHT22;10682;50.874;3.656;2023-10-08T00:54:42;15.40;99.90
21047;DHT22;10682;50.874;3.656;2023-10-08T00:57:21;15.40;99.90
21047;DHT22;10682;50.874;3.656;2023-10-08T00:59:50;15.30;99.90
21047;DHT22;10682;50.874;3.656;2023-10-08T01:02:23;15.20;99.90
21047;DHT22;10682;50.874;3.656;2023-10-08T01:04:55;15.20;99.90
21047;DHT22;10682;50.874;3.656;2023-10-08T01:07:24;15.10;99.90
21047;DHT22;10682;50.874;3.656;2023-10-08T01:09:51;15.00;99.90
21047;DHT22;10682;50.874;3.656;2023-10-08T01:12:23;15.00;99.90
21047;DHT22;10682;50.874;3.656;2023-10-08T01:14:57;14.90;99.90
21047;DHT22;10682;50.874;3.656;2023-10-08T01:17:31;14.90;99.90
21047;DHT22;10682;50.874;3.656;2023-10-08T01:19:59;14.80;99.90
21047;DHT22;10682;50.874;3.656;2023-10-08T01:22:44;14.80;99.90
21047;DHT22;10682;50.874;3.656;2023-10-08T01:25:11;14.80;99.90
21047;DHT22;10682;50.874;3.656;2023-10-08T01:27:48;14.80;99.90
21047;DHT22;10682;50.874;3.656;2023-10-08T01:30:15;14.80;99.90
21047;DHT22;10682;50.874;3.656;2023-10-08T01:32:45;14.80;99.90
21047;DHT22;10682;50.874;3.656;2023-10-08T01:35:12;14.70;99.90
21047;DHT22;10682;50.874;3.656;2023-10-08T01:37:50;14.60;99.90
21047;DHT22;10682;50.874;3.656;2023-10-08T01:40:18;14.60;99.90
21047;DHT22;10682;50.874;3.656;2023-10-08T01:42:45;14.60;99.90
21047;DHT22;10682;50.874;3.656;2023-10-08T01:45:12;14.50;99.90
21047;DHT22;10682;50.874;3.656;2023-10-08T01:47:42;14.50;99.90
21047;DHT22;10682;50.874;3.656;2023-10-08T01:50:10;14.50;99.90
21047;DHT22;10682;50.874;3.656;2023-10-08T01:52:49;14.50;99.90
21047;DHT22;10682;50.874;3.656;2023-10-08T01:55:18;14.60;99.90
21047;DHT22;10682;50.874;3.656;2023-10-08T01:57:47;14.60;99.90
21047;DHT22;10682;50.874;3.656;2023-10-08T02:00:17;14.60;99.90
21047;DHT22;10682;50.874;3.656;2023-10-08T02:02:51;14.70;99.90
21047;DHT22;10682;50.874;3.656;2023-10-08T02:05:21;14.70;99.90
21047;DHT22;10682;50.874;3.656;2023-10-08T02:07:49;14.80;99.90
21047;DHT22;10682;50.874;3.656;2023-10-08T02:10:30;14.80;99.90
21047;DHT22;10682;50.874;3.656;2023-10-08T02:13:01;14.80;99.90
21047;DHT22;10682;50.874;3.656;2023-10-08T02:15:28;14.80;99.90
21047;DHT22;10682;50.874;3.656;2023-10-08T02:17:57;14.80;99.90
21047;DHT22;10682;50.874;3.656;2023-10-08T02:20:26;14.90;99.90
21047;DHT22;10682;50.874;3.656;2023-10-08T02:22:54;14.90;99.90
21047;DHT22;10682;50.874;3.656;2023-10-08T02:25:21;14.90;99.90
21047;DHT22;10682;50.874;3.656;2023-10-08T02:27:50;14.90;99.90
21047;DHT22;10682;50.874;3.656;2023-10-08T02:30:18;14.90;99.90
21047;DHT22;10682;50.874;3.656;2023-10-08T02:32:48;14.90;99.90
21047;DHT22;10682;50.874;3.656;2023-10-08T02:35:16;14.90;99.90
21047;DHT22;10682;50.874;3.656;2023-10-08T02:37:43;14.80;99.90
21047;DHT22;10682;50.874;3.656;2023-10-08T02:40:12;14.80;99.90
21047;DHT22;10682;50.874;3.656;2023-10-08T02:42:59;14.80;99.90
21047;DHT22;10682;50.874;3.656;2023-10-08T02:45:28;14.80;99.90
21047;DHT22;10682;50.874;3.656;2023-10-08T02:47:58;14.90;99.90
21047;DHT22;10682;50.874;3.656;2023-10-08T02:50:25;14.80;99.90
21047;DHT22;10682;50.874;3.656;2023-10-08T02:52:55;14.80;99.90
21047;DHT22;10682;50.874;3.656;2023-10-08T02:55:29;14.80;99.90
21047;DHT22;10682;50.874;3.656;2023-10-08T02:58:02;14.80;99.90
21047;DHT22;10682;50.874;3.656;2023-10-08T03:00:30;14.70;99.90
21047;DHT22;10682;50.874;3.656;2023-10-08T03:03:01;14.70;99.90
21047;DHT22;10682;50.874;3.656;2023-10-08T03:05:37;14.70;99.90
21047;DHT22;10682;50.874;3.656;2023-10-08T03:08:04;14.70;99.90
21047;DHT22;10682;50.874;3.656;2023-10-08T03:10:51;14.60;99.90
21047;DHT22;10682;50.874;3.656;2023-10-08T03:13:23;14.60;99.90
21047;DHT22;10682;50.874;3.656;2023-10-08T03:15:53;14.50;99.90
21047;DHT22;10682;50.874;3.656;2023-10-08T03:18:27;14.50;99.90
21047;DHT22;10682;50.874;3.656;2023-10-08T03:21:05;14.50;99.90
21047;DHT22;10682;50.874;3.656;2023-10-08T03:23:52;14.40;99.90
21047;DHT22;10682;50.874;3.656;2023-10-08T03:26:25;14.40;99.90
21047;DHT22;10682;50.874;3.656;2023-10-08T03:29:04;14.40;99.90
21047;DHT22;10682;50.874;3.656;2023-10-08T03:31:42;14.40;99.90
21047;DHT22;10682;50.874;3.656;2023-10-08T03:34:17;14.30;99.90
21047;DHT22;10682;50.874;3.656;2023-10-08T03:36:48;14.30;99.90
21047;DHT22;10682;50.874;3.656;2023-10-08T03:39:24;14.30;99.90
21047;DHT22;10682;50.874;3.656;2023-10-08T03:42:21;14.20;99.90
21047;DHT22;10682;50.874;3.656;2023-10-08T03:44:50;14.20;99.90
21047;DHT22;10682;50.874;3.656;2023-10-08T03:47:20;14.20;99.90
21047;DHT22;10682;50.874;3.656;2023-10-08T03:49:56;14.20;99.90
21047;DHT22;10682;50.874;3.656;2023-10-08T03:52:23;14.20;99.90
21047;DHT22;10682;50.874;3.656;2023-10-08T03:54:52;14.10;99.90
21047;DHT22;10682;50.874;3.656;2023-10-08T03:57:40;14.10;99.90
21047;DHT22;10682;50.874;3.656;2023-10-08T04:00:11;14.00;99.90
21047;DHT22;10682;50.874;3.656;2023-10-08T04:02:42;14.00;99.90
21047;DHT22;10682;50.874;3.656;2023-10-08T04:05:13;14.00;99.90
21047;DHT22;10682;50.874;3.656;2023-10-08T04:07:47;13.90;99.90
21047;DHT22;10682;50.874;3.656;2023-10-08T04:10:37;13.90;99.90
21047;DHT22;10682;50.874;3.656;2023-10-08T04:13:07;13.90;99.90
21047;DHT22;10682;50.874;3.656;2023-10-08T04:15:36;13.80;99.90
21047;DHT22;10682;50.874;3.656;2023-10-08T04:18:10;13.80;99.90
21047;DHT22;10682;50.874;3.656;2023-10-08T04:20:41;13.80;99.90
21047;DHT22;10682;50.874;3.656;2023-10-08T04:23:27;13.70;99.90
21047;DHT22;10682;50.874;3.656;2023-10-08T04:25:56;13.70;99.90
21047;DHT22;10682;50.874;3.656;2023-10-08T04:28:25;13.60;99.90
21047;DHT22;10682;50.874;3.656;2023-10-08T04:30:56;13.60;99.90
21047;DHT22;10682;50.874;3.656;2023-10-08T04:33:28;13.60;99.90
21047;DHT22;10682;50.874;3.656;2023-10-08T04:36:03;13.50;99.90
21047;DHT22;10682;50.874;3.656;2023-10-08T04:38:33;13.50;99.90
21047;DHT22;10682;50.874;3.656;2023-10-08T04:41:07;13.50;99.90
21047;DHT22;10682;50.874;3.656;2023-10-08T04:43:40;13.50;99.90
21047;DHT22;10682;50.874;3.656;2023-10-08T04:46:12;13.50;99.90
21047;DHT22;10682;50.874;3.656;2023-10-08T04:49:02;13.50;99.90
21047;DHT22;10682;50.874;3.656;2023-10-08T04:51:33;13.50;99.90
21047;DHT22;10682;50.874;3.656;2023-10-08T04:54:11;13.50;99.90
21047;DHT22;10682;50.874;3.656;2023-10-08T04:56:50;13.50;99.90
21047;DHT22;10682;50.874;3.656;2023-10-08T04:59:29;13.60;99.90
21047;DHT22;10682;50.874;3.656;2023-10-08T05:02:04;13.60;99.90
21047;DHT22;10682;50.874;3.656;2023-10-08T05:04:41;13.60;99.90
21047;DHT22;10682;50.874;3.656;2023-10-08T05:07:21;13.60;99.90
21047;DHT22;10682;50.874;3.656;2023-10-08T05:10:11;13.60;99.90
21047;DHT22;10682;50.874;3.656;2023-10-08T05:12:53;13.60;99.90
21047;DHT22;10682;50.874;3.656;2023-10-08T05:15:37;13.60;99.90
21047;DHT22;10682;50.874;3.656;2023-10-08T05:18:35;13.60;99.90
21047;DHT22;10682;50.874;3.656;2023-10-08T05:21:23;13.60;99.90
21047;DHT22;10682;50.874;3.656;2023-10-08T05:24:14;13.70;99.90
21047;DHT22;10682;50.874;3.656;2023-10-08T05:27:01;13.70;99.90
21047;DHT22;10682;50.874;3.656;2023-10-08T05:30:16;13.70;99.90
21047;DHT22;10682;50.874;3.656;2023-10-08T05:37:34;13.80;99.90
21047;DHT22;10682;50.874;3.656;2023-10-08T05:40:09;13.80;99.90
21047;DHT22;10682;50.874;3.656;2023-10-08T05:42:54;13.80;99.90
21047;DHT22;10682;50.874;3.656;2023-10-08T05:45:30;13.80;99.90
21047;DHT22;10682;50.874;3.656;2023-10-08T05:48:02;13.80;99.90
21047;DHT22;10682;50.874;3.656;2023-10-08T05:50:42;13.80;99.90
21047;DHT22;10682;50.874;3.656;2023-10-08T05:53:23;13.80;99.90
21047;DHT22;10682;50.874;3.656;2023-10-08T05:56:10;13.80;99.90
21047;DHT22;10682;50.874;3.656;2023-10-08T05:58:55;13.80;99.90
21047;DHT22;10682;50.874;3.656;2023-10-08T06:01:46;13.80;99.90
21047;DHT22;10682;50.874;3.656;2023-10-08T06:04:13;13.80;99.90
21047;DHT22;10682;50.874;3.656;2023-10-08T06:06:59;13.70;99.90
21047;DHT22;10682;50.874;3.656;2023-10-08T06:09:39;13.70;99.90
21047;DHT22;10682;50.874;3.656;2023-10-08T06:12:07;13.60;99.90
21047;DHT22;10682;50.874;3.656;2023-10-08T06:14:37;13.60;99.90
21047;DHT22;10682;50.874;3.656;2023-10-08T06:17:35;13.60;99.90
21047;DHT22;10682;50.874;3.656;2023-10-08T06:20:24;13.60;99.90
21047;DHT22;10682;50.874;3.656;2023-10-08T06:23:22;13.60;99.90
21047;DHT22;10682;50.874;3.656;2023-10-08T08:21:16;18.60;99.90
21047;DHT22;10682;50.874;3.656;2023-10-08T08:39:04;20.90;99.90
21047;DHT22;10682;50.874;3.656;2023-10-08T08:41:42;21.00;99.90
21047;DHT22;10682;50.874;3.656;2023-10-08T09:25:31;20.70;99.90
21047;DHT22;10682;50.874;3.656;2023-10-08T09:29:11;21.30;99.90
21047;DHT22;10682;50.874;3.656;2023-10-08T09:46:24;20.70;99.90
21047;DHT22;10682;50.874;3.656;2023-10-08T10:06:19;22.00;99.90
21047;DHT22;10682;50.874;3.656;2023-10-08T10:12:11;22.40;99.90
21047;DHT22;10682;50.874;3.656;2023-10-08T10:15:26;22.40;99.90
21047;DHT22;10682;50.874;3.656;2023-10-08T10:23:41;22.40;99.90
21047;DHT22;10682;50.874;3.656;2023-10-08T10:30:21;22.30;99.90
21047;DHT22;10682;50.874;3.656;2023-10-08T10:32:55;22.60;99.90
21047;DHT22;10682;50.874;3.656;2023-10-08T10:35:56;22.70;99.90
21047;DHT22;10682;50.874;3.656;2023-10-08T10:38:33;22.60;99.90
21047;DHT22;10682;50.874;3.656;2023-10-08T10:45:52;22.90;99.90
21047;DHT22;10682;50.874;3.656;2023-10-08T10:48:36;23.10;99.90
21047;DHT22;10682;50.874;3.656;2023-10-08T10:51:35;23.10;99.90
21047;DHT22;10682;50.874;3.656;2023-10-08T10:54:16;23.20;99.90
21047;DHT22;10682;50.874;3.656;2023-10-08T10:56:51;23.30;99.90
21047;DHT22;10682;50.874;3.656;2023-10-08T10:59:36;23.10;99.90
21047;DHT22;10682;50.874;3.656;2023-10-08T11:02:14;22.80;99.90
21047;DHT22;10682;50.874;3.656;2023-10-08T11:09:08;23.20;99.90
21047;DHT22;10682;50.874;3.656;2023-10-08T11:11:43;23.40;99.90
21047;DHT22;10682;50.874;3.656;2023-10-08T11:14:21;23.50;99.90
21047;DHT22;10682;50.874;3.656;2023-10-08T11:16:49;23.20;99.90
21047;DHT22;10682;50.874;3.656;2023-10-08T11:19:20;23.40;99.90
21047;DHT22;10682;50.874;3.656;2023-10-08T11:25:59;23.30;99.90
21047;DHT22;10682;50.874;3.656;2023-10-08T11:28:35;23.80;99.90
21047;DHT22;10682;50.874;3.656;2023-10-08T11:31:13;23.60;99.90
21047;DHT22;10682;50.874;3.656;2023-10-08T11:33:46;23.50;99.90
21047;DHT22;10682;50.874;3.656;2023-10-08T11:36:28;23.60;99.90
21047;DHT22;10682;50.874;3.656;2023-10-08T11:39:23;23.60;99.90
21047;DHT22;10682;50.874;3.656;2023-10-08T11:42:03;23.60;99.90
21047;DHT22;10682;50.874;3.656;2023-10-08T11:45:00;23.60;99.90
21047;DHT22;10682;50.874;3.656;2023-10-08T11:48:06;23.50;99.90
21047;DHT22;10682;50.874;3.656;2023-10-08T11:50:40;23.70;99.90
21047;DHT22;10682;50.874;3.656;2023-10-08T11:53:08;23.70;99.90
21047;DHT22;10682;50.874;3.656;2023-10-08T11:55:37;23.80;99.90
21047;DHT22;10682;50.874;3.656;2023-10-08T11:58:06;23.70;99.90
21047;DHT22;10682;50.874;3.656;2023-10-08T12:00:44;23.80;99.90
21047;DHT22;10682;50.874;3.656;2023-10-08T12:03:15;24.10;99.90
21047;DHT22;10682;50.874;3.656;2023-10-08T12:05:50;24.20;99.90
21047;DHT22;10682;50.874;3.656;2023-10-08T12:08:27;24.10;99.90
21047;DHT22;10682;50.874;3.656;2023-10-08T12:11:02;23.90;99.90
21047;DHT22;10682;50.874;3.656;2023-10-08T12:13:59;23.90;99.90
21047;DHT22;10682;50.874;3.656;2023-10-08T12:16:35;23.90;99.90
21047;DHT22;10682;50.874;3.656;2023-10-08T12:19:03;23.70;99.90
21047;DHT22;10682;50.874;3.656;2023-10-08T12:21:45;23.80;99.90
21047;DHT22;10682;50.874;3.656;2023-10-08T12:24:27;24.00;99.90
21047;DHT22;10682;50.874;3.656;2023-10-08T12:26:54;24.00;99.90
21047;DHT22;10682;50.874;3.656;2023-10-08T12:29:22;24.00;99.90
21047;DHT22;10682;50.874;3.656;2023-10-08T12:31:53;24.00;99.90
21047;DHT22;10682;50.874;3.656;2023-10-08T12:34:28;24.00;99.90
21047;DHT22;10682;50.874;3.656;2023-10-08T12:37:00;23.90;99.90
21047;DHT22;10682;50.874;3.656;2023-10-08T12:40:05;23.90;99.90
21047;DHT22;10682;50.874;3.656;2023-10-08T12:42:52;24.00;99.90
21047;DHT22;10682;50.874;3.656;2023-10-08T12:45:27;24.20;99.90
21047;DHT22;10682;50.874;3.656;2023-10-08T12:47:57;24.40;99.90
21047;DHT22;10682;50.874;3.656;2023-10-08T12:50:29;24.30;99.90
21047;DHT22;10682;50.874;3.656;2023-10-08T12:53:01;24.10;99.90
21047;DHT22;10682;50.874;3.656;2023-10-08T12:55:31;24.10;99.90
21047;DHT22;10682;50.874;3.656;2023-10-08T12:57:58;24.10;99.90
21047;DHT22;10682;50.874;3.656;2023-10-08T13:00:37;24.20;99.90
21047;DHT22;10682;50.874;3.656;2023-10-08T13:03:32;24.20;99.90
21047;DHT22;10682;50.874;3.656;2023-10-08T13:06:03;24.40;99.90
21047;DHT22;10682;50.874;3.656;2023-10-08T13:08:37;24.60;99.90
21047;DHT22;10682;50.874;3.656;2023-10-08T13:11:10;24.50;99.90
21047;DHT22;10682;50.874;3.656;2023-10-08T13:13:41;24.50;99.90
21047;DHT22;10682;50.874;3.656;2023-10-08T13:16:30;24.30;99.90
21047;DHT22;10682;50.874;3.656;2023-10-08T13:18:59;24.30;99.90
21047;DHT22;10682;50.874;3.656;2023-10-08T13:21:28;24.30;99.90
21047;DHT22;10682;50.874;3.656;2023-10-08T13:23:55;24.50;99.90
21047;DHT22;10682;50.874;3.656;2023-10-08T13:26:31;24.50;99.90
21047;DHT22;10682;50.874;3.656;2023-10-08T13:28:59;24.40;99.90
21047;DHT22;10682;50.874;3.656;2023-10-08T13:31:27;24.20;99.90
21047;DHT22;10682;50.874;3.656;2023-10-08T13:33:54;24.30;99.90
21047;DHT22;10682;50.874;3.656;2023-10-08T13:36:24;24.40;99.90
21047;DHT22;10682;50.874;3.656;2023-10-08T13:38:51;24.50;99.90
21047;DHT22;10682;50.874;3.656;2023-10-08T13:41:19;24.40;99.90
21047;DHT22;10682;50.874;3.656;2023-10-08T13:43:48;24.50;99.90
21047;DHT22;10682;50.874;3.656;2023-10-08T13:46:20;24.50;99.90
21047;DHT22;10682;50.874;3.656;2023-10-08T13:48:53;24.50;99.90
21047;DHT22;10682;50.874;3.656;2023-10-08T13:51:23;24.50;99.90
21047;DHT22;10682;50.874;3.656;2023-10-08T13:53:56;24.40;99.90
21047;DHT22;10682;50.874;3.656;2023-10-08T13:56:28;24.40;99.90
21047;DHT22;10682;50.874;3.656;2023-10-08T13:59:00;24.40;99.90
21047;DHT22;10682;50.874;3.656;2023-10-08T14:01:45;24.40;99.90
21047;DHT22;10682;50.874;3.656;2023-10-08T14:04:13;24.50;99.90
21047;DHT22;10682;50.874;3.656;2023-10-08T14:06:46;24.40;99.90
21047;DHT22;10682;50.874;3.656;2023-10-08T14:09:22;24.30;99.90
21047;DHT22;10682;50.874;3.656;2023-10-08T14:11:59;24.30;99.90
21047;DHT22;10682;50.874;3.656;2023-10-08T14:14:30;24.30;99.90
21047;DHT22;10682;50.874;3.656;2023-10-08T14:16:58;24.30;99.90
21047;DHT22;10682;50.874;3.656;2023-10-08T14:19:35;24.20;99.90
21047;DHT22;10682;50.874;3.656;2023-10-08T14:22:06;24.10;99.90
21047;DHT22;10682;50.874;3.656;2023-10-08T14:24:37;24.00;99.90
21047;DHT22;10682;50.874;3.656;2023-10-08T14:27:22;24.10;99.90
21047;DHT22;10682;50.874;3.656;2023-10-08T14:29:55;24.00;99.90
21047;DHT22;10682;50.874;3.656;2023-10-08T14:32:29;24.10;99.90
21047;DHT22;10682;50.874;3.656;2023-10-08T14:34:59;24.10;99.90
21047;DHT22;10682;50.874;3.656;2023-10-08T14:37:44;24.10;99.90
21047;DHT22;10682;50.874;3.656;2023-10-08T14:40:35;24.10;99.90
21047;DHT22;10682;50.874;3.656;2023-10-08T14:43:21;24.10;99.90
21047;DHT22;10682;50.874;3.656;2023-10-08T14:45:54;24.10;99.90
21047;DHT22;10682;50.874;3.656;2023-10-08T14:48:21;24.10;99.90
21047;DHT22;10682;50.874;3.656;2023-10-08T14:50:51;24.10;99.90
21047;DHT22;10682;50.874;3.656;2023-10-08T14:53:19;24.10;99.90
21047;DHT22;10682;50.874;3.656;2023-10-08T14:55:46;24.20;99.90
21047;DHT22;10682;50.874;3.656;2023-10-08T14:58:15;24.20;99.90
21047;DHT22;10682;50.874;3.656;2023-10-08T15:00:42;24.10;99.90
21047;DHT22;10682;50.874;3.656;2023-10-08T15:03:09;24.10;99.90
21047;DHT22;10682;50.874;3.656;2023-10-08T15:05:39;24.10;99.90
21047;DHT22;10682;50.874;3.656;2023-10-08T15:08:06;24.10;99.90
21047;DHT22;10682;50.874;3.656;2023-10-08T15:10:50;24.00;99.90
21047;DHT22;10682;50.874;3.656;2023-10-08T15:13:23;24.00;99.90
21047;DHT22;10682;50.874;3.656;2023-10-08T15:15:52;23.90;99.90
21047;DHT22;10682;50.874;3.656;2023-10-08T15:18:21;23.90;99.90
21047;DHT22;10682;50.874;3.656;2023-10-08T15:20:54;23.90;99.90
21047;DHT22;10682;50.874;3.656;2023-10-08T15:23:24;23.90;99.90
21047;DHT22;10682;50.874;3.656;2023-10-08T15:25:54;23.90;99.90
21047;DHT22;10682;50.874;3.656;2023-10-08T15:28:24;23.80;99.90
21047;DHT22;10682;50.874;3.656;2023-10-08T15:31:11;23.80;99.90
21047;DHT22;10682;50.874;3.656;2023-10-08T15:33:44;23.70;99.90
21047;DHT22;10682;50.874;3.656;2023-10-08T15:36:15;23.70;99.90
21047;DHT22;10682;50.874;3.656;2023-10-08T15:38:51;23.70;99.90
21047;DHT22;10682;50.874;3.656;2023-10-08T15:42:17;23.70;99.90
21047;DHT22;10682;50.874;3.656;2023-10-08T15:44:47;23.70;99.90
21047;DHT22;10682;50.874;3.656;2023-10-08T15:47:38;23.60;99.90
21047;DHT22;10682;50.874;3.656;2023-10-08T15:50:44;23.60;99.90
21047;DHT22;10682;50.874;3.656;2023-10-08T15:53:23;23.50;99.90
21047;DHT22;10682;50.874;3.656;2023-10-08T16:00:04;23.20;99.90
21047;DHT22;10682;50.874;3.656;2023-10-08T16:02:57;23.10;99.90
21047;DHT22;10682;50.874;3.656;2023-10-08T16:05:48;23.00;99.90
21047;DHT22;10682;50.874;3.656;2023-10-08T16:08:41;23.00;99.90
21047;DHT22;10682;50.874;3.656;2023-10-08T16:12:13;23.00;99.90
21047;DHT22;10682;50.874;3.656;2023-10-08T16:19:57;22.80;99.90
21047;DHT22;10682;50.874;3.656;2023-10-08T16:22:26;22.60;99.90
21047;DHT22;10682;50.874;3.656;2023-10-08T17:30:14;19.70;99.90
21047;DHT22;10682;50.874;3.656;2023-10-08T17:32:46;19.50;99.90
21047;DHT22;10682;50.874;3.656;2023-10-08T17:35:19;19.40;99.90
21047;DHT22;10682;50.874;3.656;2023-10-08T17:37:48;19.30;99.90
21047;DHT22;10682;50.874;3.656;2023-10-08T17:40:15;19.10;99.90
21047;DHT22;10682;50.874;3.656;2023-10-08T17:42:43;18.90;99.90
21047;DHT22;10682;50.874;3.656;2023-10-08T17:45:11;18.80;99.90
21047;DHT22;10682;50.874;3.656;2023-10-08T17:47:42;18.70;99.90
21047;DHT22;10682;50.874;3.656;2023-10-08T17:50:11;18.60;99.90
21047;DHT22;10682;50.874;3.656;2023-10-08T17:52:38;18.50;99.90
21047;DHT22;10682;50.874;3.656;2023-10-08T17:55:06;18.40;99.90
21047;DHT22;10682;50.874;3.656;2023-10-08T17:57:40;18.30;99.90
21047;DHT22;10682;50.874;3.656;2023-10-08T18:00:09;18.30;99.90
21047;DHT22;10682;50.874;3.656;2023-10-08T18:02:41;18.20;99.90
21047;DHT22;10682;50.874;3.656;2023-10-08T18:05:10;18.10;99.90
21047;DHT22;10682;50.874;3.656;2023-10-08T18:07:47;18.10;99.90
21047;DHT22;10682;50.874;3.656;2023-10-08T18:10:22;18.00;99.90
21047;DHT22;10682;50.874;3.656;2023-10-08T18:12:52;17.90;99.90
21047;DHT22;10682;50.874;3.656;2023-10-08T18:15:20;17.90;99.90
21047;DHT22;10682;50.874;3.656;2023-10-08T18:17:52;17.80;99.90
21047;DHT22;10682;50.874;3.656;2023-10-08T18:21:23;17.80;99.90
21047;DHT22;10682;50.874;3.656;2023-10-08T18:29:01;17.60;99.90
21047;DHT22;10682;50.874;3.656;2023-10-08T18:49:55;17.00;99.90
21047;DHT22;10682;50.874;3.656;2023-10-08T18:53:10;16.90;99.90
21047;DHT22;10682;50.874;3.656;2023-10-08T19:00:53;16.80;99.90
21047;DHT22;10682;50.874;3.656;2023-10-08T20:11:54;15.10;99.90
21047;DHT22;10682;50.874;3.656;2023-10-08T20:14:28;15.10;99.90
21047;DHT22;10682;50.874;3.656;2023-10-08T20:16:58;15.00;99.90
21047;DHT22;10682;50.874;3.656;2023-10-08T20:19:27;15.00;99.90
21047;DHT22;10682;50.874;3.656;2023-10-08T20:22:00;15.00;99.90
21047;DHT22;10682;50.874;3.656;2023-10-08T20:24:30;15.00;99.90
21047;DHT22;10682;50.874;3.656;2023-10-08T20:26:58;14.90;99.90
21047;DHT22;10682;50.874;3.656;2023-10-08T20:29:30;14.90;99.90
21047;DHT22;10682;50.874;3.656;2023-10-08T20:32:11;14.90;99.90
21047;DHT22;10682;50.874;3.656;2023-10-08T20:34:52;14.90;99.90
21047;DHT22;10682;50.874;3.656;2023-10-08T20:37:20;14.80;99.90
21047;DHT22;10682;50.874;3.656;2023-10-08T20:39:51;14.80;99.90
21047;DHT22;10682;50.874;3.656;2023-10-08T20:42:21;14.80;99.90
21047;DHT22;10682;50.874;3.656;2023-10-08T20:44:48;14.80;99.90
21047;DHT22;10682;50.874;3.656;2023-10-08T20:47:16;14.70;99.90
21047;DHT22;10682;50.874;3.656;2023-10-08T20:49:46;14.70;99.90
21047;DHT22;10682;50.874;3.656;2023-10-08T20:52:19;14.70;99.90
21047;DHT22;10682;50.874;3.656;2023-10-08T20:54:47;14.60;99.90
21047;DHT22;10682;50.874;3.656;2023-10-08T20:57:19;14.50;99.90
21047;DHT22;10682;50.874;3.656;2023-10-08T20:59:55;14.50;99.90
21047;DHT22;10682;50.874;3.656;2023-10-08T21:02:23;14.50;99.90
21047;DHT22;10682;50.874;3.656;2023-10-08T21:05:16;14.40;99.90
21047;DHT22;10682;50.874;3.656;2023-10-08T21:07:51;14.40;99.90
21047;DHT22;10682;50.874;3.656;2023-10-08T21:10:22;14.40;99.90
21047;DHT22;10682;50.874;3.656;2023-10-08T21:13:00;14.50;99.90
21047;DHT22;10682;50.874;3.656;2023-10-08T21:15:32;14.50;99.90
21047;DHT22;10682;50.874;3.656;2023-10-08T21:18:10;14.50;99.90
21047;DHT22;10682;50.874;3.656;2023-10-08T21:20:40;14.50;99.90
21047;DHT22;10682;50.874;3.656;2023-10-08T21:23:40;14.50;99.90
21047;DHT22;10682;50.874;3.656;2023-10-08T21:31:27;14.40;99.90
21047;DHT22;10682;50.874;3.656;2023-10-08T21:34:39;14.30;99.90
21047;DHT22;10682;50.874;3.656;2023-10-08T21:37:25;14.10;99.90
21047;DHT22;10682;50.874;3.656;2023-10-08T21:40:36;13.80;99.90
21047;DHT22;10682;50.874;3.656;2023-10-08T21:43:38;13.70;99.90
21047;DHT22;10682;50.874;3.656;2023-10-08T21:46:34;13.70;99.90
21047;DHT22;10682;50.874;3.656;2023-10-08T21:49:16;13.70;99.90
21047;DHT22;10682;50.874;3.656;2023-10-08T21:52:01;13.70;99.90
21047;DHT22;10682;50.874;3.656;2023-10-08T21:54:38;13.70;99.90
21047;DHT22;10682;50.874;3.656;2023-10-08T21:57:35;13.70;99.90
21047;DHT22;10682;50.874;3.656;2023-10-08T22:00:32;13.70;99.90
21047;DHT22;10682;50.874;3.656;2023-10-08T22:03:51;13.70;99.90
21047;DHT22;10682;50.874;3.656;2023-10-08T22:06:20;13.80;99.90
21047;DHT22;10682;50.874;3.656;2023-10-08T22:08:53;13.80;99.90
21047;DHT22;10682;50.874;3.656;2023-10-08T22:11:23;13.90;99.90
21047;DHT22;10682;50.874;3.656;2023-10-08T22:13:52;13.90;99.90
21047;DHT22;10682;50.874;3.656;2023-10-08T22:16:25;13.90;99.90
21047;DHT22;10682;50.874;3.656;2023-10-08T22:19:00;13.90;99.90
21047;DHT22;10682;50.874;3.656;2023-10-08T22:21:41;14.00;99.90
21047;DHT22;10682;50.874;3.656;2023-10-08T22:27:43;13.90;99.90
21047;DHT22;10682;50.874;3.656;2023-10-08T22:30:25;13.90;99.90
21047;DHT22;10682;50.874;3.656;2023-10-08T22:32:56;13.80;99.90
21047;DHT22;10682;50.874;3.656;2023-10-08T22:35:27;13.80;99.90
21047;DHT22;10682;50.874;3.656;2023-10-08T22:37:56;13.80;99.90
21047;DHT22;10682;50.874;3.656;2023-10-08T22:41:28;13.80;99.90
21047;DHT22;10682;50.874;3.656;2023-10-08T22:44:13;13.80;99.90
21047;DHT22;10682;50.874;3.656;2023-10-08T22:46:47;13.80;99.90
21047;DHT22;10682;50.874;3.656;2023-10-08T22:49:40;13.80;99.90
21047;DHT22;10682;50.874;3.656;2023-10-08T22:52:15;13.80;99.90
21047;DHT22;10682;50.874;3.656;2023-10-08T22:54:49;13.90;99.90
21047;DHT22;10682;50.874;3.656;2023-10-08T22:57:18;13.90;99.90
21047;DHT22;10682;50.874;3.656;2023-10-08T22:59:50;13.90;99.90
21047;DHT22;10682;50.874;3.656;2023-10-08T23:02:21;14.00;99.90
21047;DHT22;10682;50.874;3.656;2023-10-08T23:05:03;14.00;99.90
21047;DHT22;10682;50.874;3.656;2023-10-08T23:07:35;14.10;99.90
21047;DHT22;10682;50.874;3.656;2023-10-08T23:10:17;14.00;99.90
21047;DHT22;10682;50.874;3.656;2023-10-08T23:12:44;14.00;99.90
21047;DHT22;10682;50.874;3.656;2023-10-08T23:15:14;14.10;99.90
21047;DHT22;10682;50.874;3.656;2023-10-08T23:17:41;14.10;99.90
21047;DHT22;10682;50.874;3.656;2023-10-08T23:20:12;14.20;99.90
21047;DHT22;10682;50.874;3.656;2023-10-08T23:22:49;14.40;99.90